Atlantic, Pennsylvania
Current Conditions -  °F | °C
As of 11:53 PM on Sunday 21 Dec 2014 (Local Time) from KGKJ Reporting Station
Clear Clear  
Wind Chill: -6°   Ceiling: Unl
Heat Index: -3°   Visibility: 10mi
Dew Point: -6°   Wind: 5mph
Humidity: 78%   Direction: 100°E
Pressure: 30.19"   Gusts: NA
Location:  41.5°N, 80.33°W
Report Text: KGKJ 220453Z AUTO 10004KT 10SM CLR M03/M06 A3019 RMK AO2 SLP238 T10281061 410111033 TSNO $
Loading
Personal Weather Stations






























Interactive Weather Map New forecast layout! Learn more

10-Day Weather Forecast

Advertisements
Track Severe Weather on mobile